Time;durP1;ratioP1;P1;durP2;ratioP2;P2;SDS_P1;SDS_P2;PMS_P1;PMS_P2;Temp;Humidity;BMP_temperature;BMP_pressure;BME280_temperature;BME280_humidity;BME280_pressure;Samples;Min_cycle;Max_cycle;Signal;HPM_P1;HPM_P2
2021/10/05 00:01:32;;;;;;;7.35;1.08;;;12.60;83.40;;;;;;5047787;28;20485;-76
2021/10/05 00:03:58;;;;;;;3.97;0.90;;;12.60;83.50;;;;;;5030583;28;20477;-76
2021/10/05 00:06:24;;;;;;;3.75;1.05;;;12.60;83.70;;;;;;5048563;28;20025;-76
2021/10/05 00:08:50;;;;;;;4.22;0.93;;;12.50;83.70;;;;;;5048730;28;20434;-76
2021/10/05 00:11:15;;;;;;;6.53;1.10;;;12.50;83.80;;;;;;5030066;28;20036;-77
2021/10/05 00:13:41;;;;;;;3.08;0.88;;;12.50;84.00;;;;;;5037354;28;20032;-76
2021/10/05 00:16:08;;;;;;;2.97;0.80;;;12.50;84.10;;;;;;5048650;28;20112;-76
2021/10/05 00:18:35;;;;;;;2.55;0.93;;;12.50;84.30;;;;;;5048352;28;20029;-76
2021/10/05 00:21:01;;;;;;;5.05;1.17;;;12.50;84.30;;;;;;5014812;28;21770;-76
2021/10/05 00:23:27;;;;;;;7.43;1.00;;;12.50;84.30;;;;;;5015224;28;20070;-76
2021/10/05 00:25:52;;;;;;;5.97;1.02;;;12.50;84.40;;;;;;5048128;28;20124;-76
2021/10/05 00:28:18;;;;;;;2.63;0.90;;;12.50;84.40;;;;;;5015767;28;20456;-76
2021/10/05 00:30:43;;;;;;;3.42;0.82;;;12.60;84.40;;;;;;5018685;28;20026;-76
2021/10/05 00:33:09;;;;;;;3.35;1.08;;;12.50;84.40;;;;;;5035489;28;20032;-76
2021/10/05 00:35:35;;;;;;;8.25;1.67;;;12.50;84.40;;;;;;5035185;28;20401;-76
2021/10/05 00:38:01;;;;;;;2.42;0.80;;;12.50;84.60;;;;;;5037033;28;20029;-76
2021/10/05 00:40:27;;;;;;;3.92;1.23;;;12.60;84.80;;;;;;5028085;28;20033;-76
2021/10/05 00:42:53;;;;;;;3.25;1.00;;;12.50;84.80;;;;;;5032607;28;20037;-76
2021/10/05 00:45:18;;;;;;;5.30;1.08;;;12.50;84.90;;;;;;5023160;28;20030;-76
2021/10/05 00:47:44;;;;;;;3.30;0.93;;;12.50;84.90;;;;;;5030670;28;20832;-76
2021/10/05 00:50:14;;;;;;;2.88;0.80;;;12.50;84.90;;;;;;5039040;28;20026;-76
2021/10/05 00:52:43;;;;;;;3.50;0.90;;;12.50;85.20;;;;;;5023075;28;20037;-76
2021/10/05 00:55:09;;;;;;;3.72;0.90;;;12.40;85.20;;;;;;5020187;28;20077;-76
2021/10/05 00:57:35;;;;;;;4.32;0.90;;;12.40;85.40;;;;;;5028427;28;20558;-76
2021/10/05 01:00:03;;;;;;;2.53;0.95;;;12.40;85.50;;;;;;5026343;28;20117;-76
2021/10/05 01:02:28;;;;;;;4.05;1.05;;;12.40;85.50;;;;;;5026335;28;20086;-76
2021/10/05 01:04:54;;;;;;;5.38;1.00;;;12.40;85.70;;;;;;5040985;28;20424;-76
2021/10/05 01:07:19;;;;;;;4.70;0.90;;;12.30;85.70;;;;;;5041922;28;20044;-76
2021/10/05 01:09:45;;;;;;;2.42;0.90;;;12.30;85.80;;;;;;5040327;28;20041;-76
2021/10/05 01:12:12;;;;;;;3.10;1.00;;;12.30;85.90;;;;;;5009327;28;20022;-76
2021/10/05 01:14:38;;;;;;;3.78;1.00;;;12.30;86.00;;;;;;5027674;28;20041;-76
2021/10/05 01:17:05;;;;;;;4.13;1.00;;;12.30;86.10;;;;;;5024727;28;20037;-76
2021/10/05 01:19:31;;;;;;;2.78;0.93;;;12.30;86.20;;;;;;5038936;28;20044;-76
2021/10/05 01:21:57;;;;;;;5.72;0.95;;;12.30;86.30;;;;;;5035960;28;20033;-76
2021/10/05 01:24:24;;;;;;;4.95;1.02;;;12.20;86.30;;;;;;5046027;28;20048;-76
2021/10/05 01:26:53;;;;;;;1.45;0.90;;;12.20;86.40;;;;;;5048840;28;20033;-76
2021/10/05 01:29:21;;;;;;;3.08;1.25;;;12.20;86.60;;;;;;5047855;28;20401;-76
2021/10/05 01:31:51;;;;;;;2.83;1.10;;;12.20;86.60;;;;;;5048467;27;20577;-76
2021/10/05 01:34:19;;;;;;;3.42;0.82;;;12.20;86.80;;;;;;5044653;28;20053;-76
2021/10/05 01:36:45;;;;;;;4.07;1.08;;;12.10;86.90;;;;;;5028692;28;20034;-76
2021/10/05 01:39:32;;;;;;;2.95;0.88;;;12.10;87.00;;;;;;5029931;28;20089;-76
2021/10/05 01:42:02;;;;;;;4.38;1.02;;;12.10;87.30;;;;;;5030026;28;20120;-76
2021/10/05 01:44:28;;;;;;;7.30;1.48;;;12.00;87.30;;;;;;5026594;28;20040;-76
2021/10/05 01:46:54;;;;;;;3.60;1.15;;;12.00;87.40;;;;;;5047937;28;20058;-76
2021/10/05 01:49:21;;;;;;;3.88;1.13;;;12.00;87.50;;;;;;5024052;28;20037;-76
2021/10/05 01:51:47;;;;;;;3.95;0.93;;;12.00;87.50;;;;;;5030394;28;20069;-76
2021/10/05 01:54:13;;;;;;;1.95;1.00;;;12.00;87.60;;;;;;5029525;28;20112;-76
2021/10/05 01:56:39;;;;;;;3.78;1.10;;;11.90;87.70;;;;;;5030029;28;20047;-76
2021/10/05 01:59:04;;;;;;;4.50;1.17;;;11.90;87.80;;;;;;5045106;28;20170;-76
2021/10/05 02:01:31;;;;;;;3.75;1.30;;;11.90;87.90;;;;;;5028193;28;20535;-76
2021/10/05 02:03:56;;;;;;;3.63;1.58;;;11.90;88.00;;;;;;5047796;28;20025;-76
2021/10/05 02:06:25;;;;;;;4.05;1.33;;;11.90;88.10;;;;;;5029637;28;20035;-76
2021/10/05 02:08:51;;;;;;;2.10;1.05;;;11.90;88.20;;;;;;5029854;28;20108;-76
2021/10/05 02:11:16;;;;;;;3.30;1.15;;;11.90;88.20;;;;;;5013113;28;20238;-76
2021/10/05 02:13:42;;;;;;;2.83;1.10;;;11.80;88.20;;;;;;5028731;28;20033;-76
2021/10/05 02:16:09;;;;;;;3.40;1.38;;;11.90;88.90;;;;;;5013061;28;20489;-76
2021/10/05 02:18:35;;;;;;;2.90;1.27;;;11.80;88.20;;;;;;5047151;28;20034;-76
2021/10/05 02:21:00;;;;;;;5.25;1.48;;;11.80;88.40;;;;;;5045456;28;20033;-77
2021/10/05 02:26:10;;;;;;;3.28;1.00;;;11.80;88.60;;;;;;5030095;28;20044;-76
2021/10/05 02:28:36;;;;;;;4.80;1.30;;;11.70;88.70;;;;;;5046547;28;20050;-76
2021/10/05 02:31:01;;;;;;;3.05;1.20;;;11.70;88.80;;;;;;5029677;28;20120;-76
2021/10/05 02:33:27;;;;;;;1.90;1.20;;;11.70;88.80;;;;;;5030890;28;20029;-76
2021/10/05 02:35:53;;;;;;;3.22;1.40;;;11.70;88.90;;;;;;5031909;28;20062;-76
2021/10/05 02:38:18;;;;;;;2.53;1.20;;;11.70;89.00;;;;;;5032953;28;20481;-76
2021/10/05 02:40:44;;;;;;;3.00;1.20;;;11.60;88.90;;;;;;5050481;28;20036;-76
2021/10/05 02:43:09;;;;;;;3.70;1.27;;;11.70;89.00;;;;;;5050534;28;20032;-76
2021/10/05 02:45:35;;;;;;;3.55;1.00;;;11.60;89.00;;;;;;5049829;28;20124;-76
2021/10/05 02:48:01;;;;;;;2.78;1.15;;;11.60;89.20;;;;;;5032317;28;20033;-76
2021/10/05 02:50:26;;;;;;;1.58;0.95;;;11.60;89.20;;;;;;5026841;28;20051;-76
2021/10/05 02:52:52;;;;;;;3.40;0.90;;;11.60;89.30;;;;;;5031343;28;20446;-77
2021/10/05 02:55:18;;;;;;;2.92;1.10;;;11.60;90.00;;;;;;5049878;28;20033;-76
2021/10/05 02:57:43;;;;;;;4.38;1.00;;;11.60;89.50;;;;;;5050707;28;20028;-76
2021/10/05 03:00:10;;;;;;;3.72;1.10;;;11.60;89.50;;;;;;5032626;28;20062;-76
2021/10/05 03:02:35;;;;;;;2.40;1.10;;;11.60;89.50;;;;;;5050647;28;20029;-76
2021/10/05 03:05:04;;;;;;;2.92;1.20;;;11.70;89.50;;;;;;5015945;28;20034;-76
2021/10/05 03:07:30;;;;;;;4.43;1.10;;;11.70;89.40;;;;;;5032533;28;20037;-76
2021/10/05 03:09:56;;;;;;;4.05;0.98;;;11.70;89.40;;;;;;5048935;28;20037;-76
2021/10/05 03:12:21;;;;;;;4.63;1.00;;;11.70;89.40;;;;;;5049652;28;20029;-76
2021/10/05 03:14:47;;;;;;;2.00;1.00;;;11.70;89.40;;;;;;5031845;28;20033;-76
2021/10/05 03:17:12;;;;;;;4.68;1.20;;;11.70;89.30;;;;;;5046400;28;20033;-76
2021/10/05 03:19:38;;;;;;;3.22;1.08;;;11.70;89.20;;;;;;5023491;28;20037;-76
2021/10/05 03:22:04;;;;;;;1.23;0.80;;;11.70;89.90;;;;;;5049556;28;20033;-76
2021/10/05 03:24:29;;;;;;;2.45;1.00;;;11.70;89.30;;;;;;5031680;28;20743;-76
2021/10/05 03:26:55;;;;;;;6.10;1.25;;;11.70;89.30;;;;;;5049045;28;20033;-76
2021/10/05 03:29:21;;;;;;;2.13;1.00;;;11.60;89.30;;;;;;5029988;28;20045;-76
2021/10/05 03:31:46;;;;;;;4.20;1.23;;;11.60;89.40;;;;;;5020905;28;20447;-76
2021/10/05 03:34:12;;;;;;;2.78;1.10;;;11.60;89.40;;;;;;5015008;28;20027;-76
2021/10/05 03:36:38;;;;;;;3.08;1.00;;;11.60;89.50;;;;;;5031181;28;20060;-76
2021/10/05 03:39:03;;;;;;;9.05;1.20;;;11.50;89.50;;;;;;5050018;28;20037;-76
2021/10/05 03:41:30;;;;;;;2.13;1.15;;;11.50;89.60;;;;;;5049934;28;20045;-76
2021/10/05 03:43:57;;;;;;;1.35;0.90;;;11.50;89.80;;;;;;5045137;28;20100;-76
2021/10/05 03:46:23;;;;;;;1.80;1.00;;;11.50;89.90;;;;;;5047570;28;20090;-76
2021/10/05 03:48:48;;;;;;;3.17;1.30;;;11.40;89.90;;;;;;5029518;28;20481;-76
2021/10/05 03:51:14;;;;;;;2.42;1.00;;;11.50;89.90;;;;;;5030870;28;20085;-76
2021/10/05 03:53:39;;;;;;;4.50;0.95;;;11.40;89.90;;;;;;5031122;28;20113;-76
2021/10/05 03:56:05;;;;;;;1.63;1.05;;;11.40;89.90;;;;;;5030842;28;20075;-76
2021/10/05 03:58:30;;;;;;;4.05;1.35;;;11.40;89.90;;;;;;5036408;28;20041;-76
2021/10/05 04:00:56;;;;;;;4.18;1.13;;;11.40;90.00;;;;;;5028970;28;20111;-76
2021/10/05 04:03:23;;;;;;;3.10;1.15;;;11.40;90.00;;;;;;5030185;28;20765;-76
2021/10/05 04:05:52;;;;;;;2.45;1.10;;;11.40;90.00;;;;;;5030241;28;20166;-76
2021/10/05 04:08:18;;;;;;;3.55;1.20;;;11.40;90.00;;;;;;5043728;27;20114;-76
2021/10/05 04:10:44;;;;;;;3.97;1.30;;;11.40;90.00;;;;;;5045700;28;20059;-76
2021/10/05 04:13:10;;;;;;;1.40;1.00;;;11.40;90.00;;;;;;5048108;28;20097;-76
2021/10/05 04:15:35;;;;;;;4.20;1.30;;;11.40;90.00;;;;;;5046231;27;20505;-77
2021/10/05 04:18:01;;;;;;;3.80;1.52;;;11.40;90.00;;;;;;5048060;28;20050;-76
2021/10/05 04:20:27;;;;;;;2.50;1.10;;;11.30;90.00;;;;;;5013636;28;20033;-76
2021/10/05 04:22:53;;;;;;;1.92;1.20;;;11.30;90.00;;;;;;5024915;28;20094;-76
2021/10/05 04:25:19;;;;;;;5.47;1.42;;;11.30;90.00;;;;;;5035707;28;20038;-76
2021/10/05 04:27:45;;;;;;;3.05;1.20;;;11.30;90.10;;;;;;5010607;28;20053;-76
2021/10/05 04:30:14;;;;;;;2.53;1.30;;;11.30;90.00;;;;;;5028372;28;20035;-77
2021/10/05 04:32:40;;;;;;;2.30;1.02;;;11.30;90.10;;;;;;5055199;27;20042;-78
2021/10/05 04:35:07;;;;;;;3.72;1.40;;;11.30;90.10;;;;;;5072502;27;20029;-78
2021/10/05 04:37:33;;;;;;;5.72;1.23;;;11.30;90.10;;;;;;5029057;28;20037;-78
2021/10/05 04:39:58;;;;;;;4.63;1.35;;;11.30;90.10;;;;;;5047976;28;20052;-78
2021/10/05 04:42:24;;;;;;;4.13;1.13;;;11.30;90.20;;;;;;5048012;28;20029;-78
2021/10/05 04:44:51;;;;;;;7.90;1.35;;;11.20;90.10;;;;;;5030322;28;20029;-78
2021/10/05 04:47:17;;;;;;;3.50;1.65;;;11.30;90.20;;;;;;5020554;28;20040;-78
2021/10/05 04:49:42;;;;;;;1.85;1.30;;;11.30;90.20;;;;;;5047589;28;20033;-78
2021/10/05 04:52:08;;;;;;;5.80;1.48;;;11.20;90.20;;;;;;5047085;28;20025;-78
2021/10/05 04:54:34;;;;;;;3.30;1.40;;;11.20;90.20;;;;;;5024653;28;20044;-78
2021/10/05 04:57:00;;;;;;;2.83;1.40;;;11.20;90.30;;;;;;5008809;28;20042;-77
2021/10/05 04:59:26;;;;;;;1.95;1.10;;;11.20;90.30;;;;;;5042537;28;20044;-77
2021/10/05 05:01:51;;;;;;;8.80;1.75;;;11.20;90.40;;;;;;5007197;28;20136;-77
2021/10/05 05:04:17;;;;;;;4.07;1.75;;;11.10;90.30;;;;;;5026731;28;20034;-77
2021/10/05 05:06:44;;;;;;;2.60;1.58;;;11.20;90.40;;;;;;5033211;28;20798;-77
2021/10/05 05:09:10;;;;;;;4.18;1.50;;;11.20;90.40;;;;;;5025919;28;20036;-77
2021/10/05 05:11:36;;;;;;;3.72;1.45;;;11.10;90.40;;;;;;5016031;28;20508;-77
2021/10/05 05:14:07;;;;;;;4.07;1.42;;;11.10;90.40;;;;;;5067664;27;20053;-78
2021/10/05 05:16:34;;;;;;;4.32;1.42;;;11.10;90.40;;;;;;5036853;27;20054;-77
2021/10/05 05:19:00;;;;;;;3.72;1.60;;;11.10;90.50;;;;;;5018004;28;20037;-76
2021/10/05 05:21:26;;;;;;;6.50;1.48;;;11.10;90.50;;;;;;5014528;28;20431;-75
2021/10/05 05:23:52;;;;;;;2.88;1.50;;;11.10;90.60;;;;;;5031428;28;20434;-76
2021/10/05 05:26:17;;;;;;;4.82;1.50;;;11.00;90.60;;;;;;5023395;28;20034;-75
2021/10/05 05:28:43;;;;;;;4.07;1.58;;;11.00;90.60;;;;;;5069172;28;20053;-76
2021/10/05 05:31:08;;;;;;;4.57;1.50;;;11.00;90.60;;;;;;5024851;28;20029;-75
2021/10/05 05:33:34;;;;;;;4.13;1.92;;;11.00;90.70;;;;;;5013923;28;20401;-75
2021/10/05 05:36:00;;;;;;;4.25;1.80;;;11.00;90.70;;;;;;5023281;28;20041;-76
2021/10/05 05:38:26;;;;;;;4.75;1.80;;;11.00;90.70;;;;;;5028596;28;20033;-75
2021/10/05 05:40:53;;;;;;;4.25;1.67;;;11.00;90.80;;;;;;4994996;28;20017;-75
2021/10/05 05:43:19;;;;;;;7.43;1.90;;;11.00;90.80;;;;;;5010328;28;20030;-75
2021/10/05 05:45:45;;;;;;;4.43;2.25;;;11.00;90.80;;;;;;5040436;28;20048;-75
2021/10/05 05:48:10;;;;;;;6.57;1.92;;;11.10;90.80;;;;;;5049333;28;20024;-76
2021/10/05 05:50:36;;;;;;;3.45;1.60;;;11.00;91.10;;;;;;5040503;28;20021;-76
2021/10/05 05:53:02;;;;;;;3.95;1.92;;;11.00;90.80;;;;;;5017450;28;20024;-76
2021/10/05 05:55:28;;;;;;;3.75;1.80;;;11.00;90.80;;;;;;5031911;28;20037;-76
2021/10/05 05:57:54;;;;;;;4.65;1.65;;;11.00;90.90;;;;;;5008998;28;20022;-76
2021/10/05 06:00:20;;;;;;;5.22;2.10;;;11.00;90.90;;;;;;5042353;28;20043;-75
2021/10/05 06:02:46;;;;;;;9.05;2.00;;;11.00;90.90;;;;;;5008914;28;20097;-75
2021/10/05 06:05:12;;;;;;;2.95;2.00;;;11.00;90.90;;;;;;5022435;28;20118;-75
2021/10/05 06:07:38;;;;;;;4.82;1.90;;;11.00;90.90;;;;;;5036461;28;20485;-76
2021/10/05 06:10:05;;;;;;;3.03;1.90;;;11.00;91.00;;;;;;5036990;28;20082;-76
2021/10/05 06:12:41;;;;;;;4.13;1.80;;;11.00;91.00;;;;;;5039503;28;20083;-77
2021/10/05 06:15:15;;;;;;;4.32;2.17;;;11.00;91.00;;;;;;5023630;28;20112;-79
2021/10/05 06:17:43;;;;;;;2.95;1.88;;;11.00;91.00;;;;;;5017175;28;20026;-79
2021/10/05 06:20:12;;;;;;;2.90;1.90;;;11.00;91.00;;;;;;5014957;28;20033;-74
2021/10/05 06:22:38;;;;;;;4.45;2.22;;;11.00;91.00;;;;;;5034586;28;20107;-78
2021/10/05 06:25:06;;;;;;;3.78;2.20;;;11.00;91.00;;;;;;5052128;28;20033;-78
2021/10/05 06:27:31;;;;;;;3.42;1.92;;;11.00;91.00;;;;;;5052588;28;20480;-78
2021/10/05 06:29:58;;;;;;;5.68;2.25;;;11.00;91.10;;;;;;5034984;28;20157;-78
2021/10/05 06:32:25;;;;;;;3.67;2.00;;;11.00;91.10;;;;;;5035326;28;20439;-78
2021/10/05 06:34:51;;;;;;;7.10;2.20;;;11.00;91.10;;;;;;5052702;28;20489;-78
2021/10/05 06:37:17;;;;;;;4.95;2.38;;;11.00;91.10;;;;;;5052515;28;20040;-78
2021/10/05 06:39:43;;;;;;;6.85;2.70;;;11.00;91.10;;;;;;5033547;28;20033;-78
2021/10/05 06:42:09;;;;;;;5.25;2.40;;;11.00;91.20;;;;;;5050396;28;20025;-78
2021/10/05 06:44:35;;;;;;;7.40;2.83;;;11.00;91.20;;;;;;5034088;28;20108;-78
2021/10/05 06:47:00;;;;;;;7.18;2.63;;;11.00;91.20;;;;;;5051572;28;20470;-78
2021/10/05 06:49:26;;;;;;;6.10;2.63;;;11.00;91.20;;;;;;5017413;28;20059;-77
2021/10/05 06:51:53;;;;;;;8.13;2.60;;;11.00;91.30;;;;;;5052037;28;20021;-77
2021/10/05 06:54:18;;;;;;;8.27;2.90;;;11.00;91.30;;;;;;5051778;28;20028;-77
2021/10/05 06:56:44;;;;;;;6.93;2.95;;;11.00;91.30;;;;;;5032755;28;20111;-77
2021/10/05 06:59:10;;;;;;;4.85;2.70;;;11.00;91.30;;;;;;5049533;28;20481;-77
2021/10/05 07:01:35;;;;;;;8.20;3.10;;;11.00;91.30;;;;;;5015186;28;20125;-78
2021/10/05 07:04:01;;;;;;;6.53;3.28;;;11.00;91.20;;;;;;5050911;28;20036;-77
2021/10/05 07:06:27;;;;;;;6.18;3.30;;;11.00;91.30;;;;;;5051693;28;20427;-77
2021/10/05 07:08:52;;;;;;;8.23;2.88;;;11.10;91.30;;;;;;5034859;28;20554;-77
2021/10/05 07:11:18;;;;;;;7.05;3.45;;;11.20;91.20;;;;;;5034552;28;20032;-77
2021/10/05 07:13:44;;;;;;;6.88;3.00;;;11.40;91.10;;;;;;5052065;28;20032;-78
2021/10/05 07:16:10;;;;;;;7.65;3.15;;;11.50;90.90;;;;;;5034469;28;20118;-77
2021/10/05 07:18:35;;;;;;;4.90;3.38;;;11.70;90.70;;;;;;5034358;28;20040;-77
2021/10/05 07:21:02;;;;;;;7.88;3.20;;;11.80;90.50;;;;;;5051793;28;20025;-77
2021/10/05 07:23:28;;;;;;;8.15;3.35;;;12.00;90.30;;;;;;5052072;28;20040;-77
2021/10/05 07:25:54;;;;;;;7.43;3.67;;;12.10;90.10;;;;;;5052134;28;20025;-78
2021/10/05 07:28:20;;;;;;;6.80;3.05;;;12.30;89.60;;;;;;5034166;28;20493;-78
2021/10/05 07:30:46;;;;;;;6.40;2.90;;;12.30;89.30;;;;;;5034188;28;20017;-77
2021/10/05 07:33:13;;;;;;;6.43;3.15;;;12.40;89.30;;;;;;5033340;28;20021;-78
2021/10/05 07:35:39;;;;;;;5.63;2.85;;;12.30;89.30;;;;;;5032777;28;20109;-78
2021/10/05 07:38:05;;;;;;;5.68;2.67;;;12.40;89.50;;;;;;5050673;28;20058;-78
2021/10/05 07:40:31;;;;;;;5.43;2.95;;;12.60;89.20;;;;;;5032852;28;20025;-78
2021/10/05 07:42:58;;;;;;;4.75;2.67;;;12.70;89.10;;;;;;5050285;28;20033;-78
2021/10/05 07:45:25;;;;;;;3.60;2.75;;;12.70;88.10;;;;;;5050308;28;20021;-78
2021/10/05 07:47:51;;;;;;;5.80;2.72;;;12.70;88.20;;;;;;5033265;28;20373;-78
2021/10/05 07:50:18;;;;;;;3.25;2.55;;;12.80;88.00;;;;;;5051730;28;20020;-78
2021/10/05 07:52:44;;;;;;;5.30;2.30;;;13.00;87.60;;;;;;5051736;28;20033;-78
2021/10/05 07:55:09;;;;;;;5.85;2.28;;;13.20;87.00;;;;;;5051373;28;20048;-78
2021/10/05 07:57:35;;;;;;;4.60;2.40;;;13.30;86.40;;;;;;5033712;28;20040;-78
2021/10/05 08:00:03;;;;;;;3.70;1.70;;;13.50;85.80;;;;;;5051416;28;20025;-78
2021/10/05 08:02:29;;;;;;;3.80;1.77;;;13.60;85.20;;;;;;5017394;28;20055;-78
2021/10/05 08:04:54;;;;;;;3.65;2.08;;;13.80;84.90;;;;;;5033654;28;20544;-78
2021/10/05 08:07:20;;;;;;;6.05;2.05;;;13.90;84.80;;;;;;5017088;28;20036;-78
2021/10/05 08:09:46;;;;;;;2.95;1.80;;;13.90;84.30;;;;;;5050997;28;20077;-78
2021/10/05 08:12:11;;;;;;;2.75;1.80;;;14.10;84.10;;;;;;5033361;28;20020;-78
2021/10/05 08:14:39;;;;;;;1.98;1.55;;;14.20;83.30;;;;;;5033511;28;20605;-78
2021/10/05 08:17:05;;;;;;;5.32;1.58;;;14.40;83.40;;;;;;5017318;28;20452;-78
2021/10/05 08:19:31;;;;;;;2.63;1.70;;;14.60;83.10;;;;;;5050405;28;20056;-75
2021/10/05 08:21:56;;;;;;;6.93;1.55;;;14.70;82.50;;;;;;5015961;28;20128;-75
2021/10/05 08:24:22;;;;;;;2.67;1.70;;;14.80;81.40;;;;;;5032265;28;20030;-75
2021/10/05 08:26:48;;;;;;;3.72;1.50;;;14.90;81.30;;;;;;5015776;28;20079;-75
2021/10/05 08:29:14;;;;;;;3.67;1.33;;;15.00;81.00;;;;;;5015392;28;20472;-75
2021/10/05 08:31:39;;;;;;;7.80;1.60;;;15.00;80.30;;;;;;5049102;28;20058;-75
2021/10/05 08:34:05;;;;;;;2.58;1.52;;;15.10;80.40;;;;;;5032147;28;20029;-75
2021/10/05 08:36:31;;;;;;;3.08;1.42;;;15.10;80.50;;;;;;5032127;28;20037;-75
2021/10/05 08:38:56;;;;;;;3.03;1.33;;;15.10;80.40;;;;;;5050228;28;20036;-77
2021/10/05 08:41:22;;;;;;;3.28;1.33;;;15.30;80.50;;;;;;5050809;28;20036;-78
2021/10/05 08:43:50;;;;;;;6.90;1.23;;;15.40;80.10;;;;;;5033033;28;20028;-77
2021/10/05 08:46:16;;;;;;;4.47;1.50;;;15.50;79.70;;;;;;5032858;28;20021;-78
2021/10/05 08:48:42;;;;;;;4.05;1.10;;;15.70;79.40;;;;;;5032918;28;20389;-78
2021/10/05 08:51:08;;;;;;;6.38;1.00;;;15.80;79.00;;;;;;5016418;28;20033;-78
2021/10/05 08:53:39;;;;;;;4.20;1.27;;;15.90;78.60;;;;;;5050276;28;20052;-78
2021/10/05 08:56:08;;;;;;;4.13;1.33;;;16.00;78.60;;;;;;5050605;28;20078;-78
2021/10/05 08:58:34;;;;;;;6.67;1.30;;;16.10;78.40;;;;;;5050033;28;20108;-78
2021/10/05 09:01:15;;;;;;;3.50;1.05;;;16.20;78.30;;;;;;5032379;28;20036;-78
2021/10/05 09:03:53;;;;;;;4.28;1.10;;;16.30;77.90;;;;;;5050126;28;20024;-78
2021/10/05 09:06:20;;;;;;;1.98;0.85;;;16.40;77.10;;;;;;5049113;28;20127;-78
2021/10/05 09:08:48;;;;;;;3.83;0.73;;;16.50;77.20;;;;;;5049844;28;20040;-78
2021/10/05 09:11:17;;;;;;;7.05;1.00;;;16.60;76.40;;;;;;5049902;28;20021;-78
2021/10/05 09:13:46;;;;;;;2.15;0.90;;;16.70;77.10;;;;;;5032745;28;20366;-78
2021/10/05 09:16:21;;;;;;;6.22;1.10;;;16.70;76.40;;;;;;5050445;28;20047;-78
2021/10/05 09:19:00;;;;;;;4.13;0.70;;;16.80;75.90;;;;;;5031526;28;20132;-78
2021/10/05 09:21:33;;;;;;;7.70;1.30;;;16.90;75.10;;;;;;5049802;28;20036;-78
2021/10/05 09:24:01;;;;;;;3.83;1.00;;;16.90;75.00;;;;;;5031299;28;20074;-78
2021/10/05 09:26:42;;;;;;;2.92;1.00;;;17.00;75.10;;;;;;5049106;28;20073;-78
2021/10/05 09:29:28;;;;;;;3.72;0.85;;;17.00;75.40;;;;;;5049105;28;20053;-78
2021/10/05 09:32:07;;;;;;;5.70;1.08;;;17.20;75.00;;;;;;5049968;28;20017;-78
2021/10/05 09:34:45;;;;;;;3.60;0.77;;;17.20;74.40;;;;;;5032290;28;20044;-78
2021/10/05 09:37:11;;;;;;;3.85;1.00;;;17.30;74.70;;;;;;5049999;28;20025;-78
2021/10/05 09:39:38;;;;;;;4.72;0.95;;;17.40;74.60;;;;;;5049258;28;20100;-78
2021/10/05 09:42:04;;;;;;;2.90;0.73;;;17.40;73.60;;;;;;5048188;28;20787;-78
2021/10/05 09:44:30;;;;;;;4.20;0.93;;;17.50;73.60;;;;;;5033017;28;20029;-78
2021/10/05 09:46:58;;;;;;;2.75;0.80;;;17.50;73.40;;;;;;5051003;28;20036;-78
2021/10/05 09:49:24;;;;;;;2.58;0.90;;;17.60;73.20;;;;;;5016817;28;20037;-78
2021/10/05 09:52:01;;;;;;;4.70;1.00;;;17.60;72.90;;;;;;5052673;28;20029;-78
2021/10/05 09:54:27;;;;;;;4.85;1.13;;;17.70;72.40;;;;;;5052788;28;20033;-78
2021/10/05 09:56:54;;;;;;;3.88;1.05;;;17.70;71.50;;;;;;5035448;28;20074;-78
2021/10/05 09:59:20;;;;;;;3.45;0.98;;;17.70;71.70;;;;;;5035403;28;20690;-78
2021/10/05 10:01:46;;;;;;;4.13;0.90;;;17.70;71.80;;;;;;5019146;28;20025;-78
2021/10/05 10:04:11;;;;;;;5.60;1.17;;;17.80;71.90;;;;;;5035545;28;20024;-78
2021/10/05 10:06:38;;;;;;;6.35;1.40;;;17.90;71.90;;;;;;5035435;28;20120;-78
2021/10/05 10:09:06;;;;;;;3.83;1.00;;;17.90;71.50;;;;;;5035483;28;20022;-79
2021/10/05 10:11:32;;;;;;;3.63;1.02;;;18.00;71.40;;;;;;5035382;28;20462;-79
2021/10/05 10:14:00;;;;;;;5.10;0.90;;;18.10;71.10;;;;;;5018790;28;20157;-79
2021/10/05 10:16:26;;;;;;;3.13;0.85;;;18.10;71.50;;;;;;5051919;28;20025;-79
2021/10/05 10:18:54;;;;;;;2.45;0.90;;;18.20;71.80;;;;;;5053390;28;20029;-79
2021/10/05 10:21:30;;;;;;;4.55;1.20;;;18.30;71.70;;;;;;5018781;28;20033;-79
2021/10/05 10:24:10;;;;;;;2.55;0.88;;;18.30;71.10;;;;;;5052932;28;20029;-79
2021/10/05 10:26:40;;;;;;;3.15;0.93;;;18.40;71.60;;;;;;5050682;28;20033;-78
2021/10/05 10:29:07;;;;;;;3.67;1.08;;;18.50;71.30;;;;;;5051064;28;20053;-78
2021/10/05 10:31:38;;;;;;;3.97;0.98;;;18.70;71.00;;;;;;5050621;28;20029;-78
2021/10/05 10:34:04;;;;;;;3.33;0.70;;;18.80;70.20;;;;;;5050229;28;20389;-78
2021/10/05 10:36:41;;;;;;;2.65;1.05;;;18.80;69.40;;;;;;5050875;28;20037;-78
2021/10/05 10:39:14;;;;;;;5.72;0.90;;;18.80;69.90;;;;;;5051875;28;20055;-78
2021/10/05 10:41:43;;;;;;;4.40;1.08;;;18.80;69.50;;;;;;5034247;28;20021;-78
2021/10/05 10:44:13;;;;;;;5.50;1.17;;;18.80;68.80;;;;;;5052629;28;20870;-78
2021/10/05 10:46:41;;;;;;;2.55;0.70;;;18.90;68.60;;;;;;5035185;28;20513;-78
2021/10/05 10:49:18;;;;;;;7.43;1.10;;;18.80;69.00;;;;;;5052231;28;20098;-78
2021/10/05 10:51:46;;;;;;;5.22;1.13;;;18.90;69.10;;;;;;5034437;28;20025;-77
2021/10/05 10:54:22;;;;;;;2.70;0.93;;;18.90;69.20;;;;;;5033940;28;20050;-77
2021/10/05 10:57:00;;;;;;;3.47;1.08;;;19.00;69.10;;;;;;5034484;28;20481;-78
2021/10/05 10:59:27;;;;;;;5.13;1.00;;;18.90;67.80;;;;;;5034513;28;20028;-78
2021/10/05 11:01:53;;;;;;;5.78;0.90;;;18.70;67.90;;;;;;5034115;28;20113;-77
2021/10/05 11:04:20;;;;;;;4.38;0.90;;;18.70;68.60;;;;;;5052330;28;20474;-77
2021/10/05 11:06:51;;;;;;;1.38;0.70;;;18.80;69.00;;;;;;5052265;28;20123;-77
2021/10/05 11:09:17;;;;;;;4.90;0.85;;;18.80;69.20;;;;;;5052420;28;20029;-77
2021/10/05 11:11:57;;;;;;;3.88;1.15;;;18.80;68.90;;;;;;5034457;28;20029;-77
2021/10/05 11:14:31;;;;;;;6.60;1.17;;;18.80;69.10;;;;;;5052233;28;20022;-77
2021/10/05 11:17:03;;;;;;;7.05;0.98;;;18.70;69.30;;;;;;5034355;28;20500;-77
2021/10/05 11:19:34;;;;;;;3.80;1.13;;;18.60;69.60;;;;;;5052217;28;20025;-77
2021/10/05 11:22:05;;;;;;;4.72;1.10;;;18.50;70.50;;;;;;5052087;28;20078;-77
2021/10/05 11:24:36;;;;;;;2.45;0.90;;;18.40;70.10;;;;;;5052043;28;20071;-77
2021/10/05 11:27:09;;;;;;;2.55;1.00;;;18.40;71.00;;;;;;5034349;28;20491;-77
2021/10/05 11:29:35;;;;;;;3.67;0.95;;;18.30;71.30;;;;;;5051717;28;20102;-77
2021/10/05 11:32:04;;;;;;;3.72;0.73;;;18.30;71.30;;;;;;5034305;28;20033;-77
2021/10/05 11:34:31;;;;;;;1.63;0.70;;;18.40;71.70;;;;;;5051957;28;20017;-77
2021/10/05 11:37:02;;;;;;;3.88;1.02;;;18.40;71.40;;;;;;5051902;28;20500;-77
2021/10/05 11:39:30;;;;;;;3.42;0.80;;;18.40;71.30;;;;;;5051507;28;20382;-77
2021/10/05 11:41:59;;;;;;;2.55;0.70;;;18.50;71.60;;;;;;5033751;28;20416;-77
2021/10/05 11:44:28;;;;;;;2.72;1.00;;;18.40;71.20;;;;;;5051657;28;20033;-77
2021/10/05 11:46:58;;;;;;;1.92;0.60;;;18.50;71.30;;;;;;5033801;28;20050;-77
2021/10/05 11:49:27;;;;;;;4.05;0.65;;;18.50;70.70;;;;;;5051644;28;20056;-77
2021/10/05 11:51:54;;;;;;;4.38;0.80;;;18.60;71.00;;;;;;5051663;28;20052;-77
2021/10/05 11:54:32;;;;;;;1.95;0.70;;;18.80;70.20;;;;;;5033667;28;20059;-77
2021/10/05 11:57:00;;;;;;;3.60;0.70;;;18.90;69.70;;;;;;5033176;28;20040;-77
2021/10/05 11:59:31;;;;;;;4.93;0.60;;;18.90;69.30;;;;;;5033815;28;20062;-77
2021/10/05 12:02:05;;;;;;;3.85;0.57;;;18.90;69.60;;;;;;5051413;28;20021;-77
2021/10/05 12:04:32;;;;;;;6.47;0.80;;;18.80;69.40;;;;;;5033336;28;20036;-78
2021/10/05 12:07:04;;;;;;;2.58;0.57;;;18.80;70.00;;;;;;5049265;28;20040;-78
2021/10/05 12:09:30;;;;;;;3.70;0.80;;;18.80;71.30;;;;;;5051211;28;20481;-78
2021/10/05 12:12:05;;;;;;;5.60;0.63;;;18.80;70.80;;;;;;5050987;28;20048;-78
2021/10/05 12:14:53;;;;;;;2.83;0.70;;;18.70;69.60;;;;;;5051010;28;20101;-78
2021/10/05 12:17:19;;;;;;;4.95;0.70;;;18.60;69.80;;;;;;5032896;28;20036;-78
2021/10/05 12:19:57;;;;;;;3.10;0.52;;;18.60;70.50;;;;;;5033411;28;20029;-77
2021/10/05 12:22:24;;;;;;;2.20;0.60;;;18.60;70.90;;;;;;5033361;28;20021;-77
2021/10/05 12:24:55;;;;;;;3.30;0.70;;;18.50;71.20;;;;;;5050891;28;20024;-77
2021/10/05 12:27:29;;;;;;;3.63;0.80;;;18.40;70.60;;;;;;5032792;28;20054;-77
2021/10/05 12:29:59;;;;;;;5.47;0.82;;;18.30;70.90;;;;;;5050568;28;20573;-77
2021/10/05 12:32:35;;;;;;;1.95;0.60;;;18.20;71.30;;;;;;5051000;28;20032;-77
2021/10/05 12:35:18;;;;;;;2.22;0.50;;;18.10;71.90;;;;;;5050846;28;20021;-77
2021/10/05 12:37:45;;;;;;;3.30;0.95;;;18.10;72.80;;;;;;5050912;28;20025;-77
2021/10/05 12:40:11;;;;;;;2.80;0.55;;;18.00;72.90;;;;;;5050857;28;20040;-77
2021/10/05 12:42:46;;;;;;;4.40;0.60;;;17.90;73.00;;;;;;5050855;28;20036;-77
2021/10/05 12:45:14;;;;;;;1.63;0.75;;;17.90;73.30;;;;;;5051024;28;20033;-77
2021/10/05 12:47:50;;;;;;;3.33;0.90;;;17.80;73.70;;;;;;5050718;28;20043;-77
2021/10/05 12:50:20;;;;;;;5.45;0.82;;;17.70;75.80;;;;;;5050535;28;20020;-78
2021/10/05 12:52:51;;;;;;;3.45;1.02;;;17.60;77.50;;;;;;5050259;28;20053;-78